sensor_id;sensor_type;location;lat;lon;timestamp;P1;durP1;ratioP1;P2;durP2;ratioP2
34876;SDS011;21086;44.780;17.194;2023-03-01T00:01:15;11.27;;;7.72;;
34876;SDS011;21086;44.780;17.194;2023-03-01T00:03:44;11.98;;;8.93;;
34876;SDS011;21086;44.780;17.194;2023-03-01T00:06:12;9.98;;;7.43;;
34876;SDS011;21086;44.780;17.194;2023-03-01T00:08:39;13.55;;;8.35;;
34876;SDS011;21086;44.780;17.194;2023-03-01T00:11:14;13.55;;;10.25;;
34876;SDS011;21086;44.780;17.194;2023-03-01T00:13:44;10.65;;;8.43;;
34876;SDS011;21086;44.780;17.194;2023-03-01T00:16:13;14.23;;;9.75;;
34876;SDS011;21086;44.780;17.194;2023-03-01T00:18:42;11.13;;;8.13;;
34876;SDS011;21086;44.780;17.194;2023-03-01T00:21:10;9.80;;;7.70;;
34876;SDS011;21086;44.780;17.194;2023-03-01T00:23:37;10.63;;;7.43;;
34876;SDS011;21086;44.780;17.194;2023-03-01T00:26:08;16.55;;;12.50;;
34876;SDS011;21086;44.780;17.194;2023-03-01T00:28:37;14.60;;;11.73;;
34876;SDS011;21086;44.780;17.194;2023-03-01T00:31:04;11.00;;;8.23;;
34876;SDS011;21086;44.780;17.194;2023-03-01T00:33:32;11.82;;;8.55;;
34876;SDS011;21086;44.780;17.194;2023-03-01T00:35:59;11.27;;;8.77;;
34876;SDS011;21086;44.780;17.194;2023-03-01T00:38:27;12.68;;;9.55;;
34876;SDS011;21086;44.780;17.194;2023-03-01T00:40:55;15.77;;;11.48;;
34876;SDS011;21086;44.780;17.194;2023-03-01T00:43:28;13.43;;;9.60;;
34876;SDS011;21086;44.780;17.194;2023-03-01T00:45:55;19.02;;;12.00;;
34876;SDS011;21086;44.780;17.194;2023-03-01T00:48:22;18.17;;;11.27;;
34876;SDS011;21086;44.780;17.194;2023-03-01T00:50:49;16.55;;;11.68;;
34876;SDS011;21086;44.780;17.194;2023-03-01T00:53:16;12.35;;;8.75;;
34876;SDS011;21086;44.780;17.194;2023-03-01T00:55:43;15.18;;;10.18;;
34876;SDS011;21086;44.780;17.194;2023-03-01T00:58:12;19.67;;;11.98;;
34876;SDS011;21086;44.780;17.194;2023-03-01T01:00:39;14.40;;;10.05;;
34876;SDS011;21086;44.780;17.194;2023-03-01T01:03:06;9.45;;;7.50;;
34876;SDS011;21086;44.780;17.194;2023-03-01T01:05:34;11.60;;;8.48;;
34876;SDS011;21086;44.780;17.194;2023-03-01T01:08:01;14.43;;;9.45;;
34876;SDS011;21086;44.780;17.194;2023-03-01T01:10:28;13.10;;;9.43;;
34876;SDS011;21086;44.780;17.194;2023-03-01T01:12:55;10.80;;;8.15;;
34876;SDS011;21086;44.780;17.194;2023-03-01T01:15:22;13.45;;;10.20;;
34876;SDS011;21086;44.780;17.194;2023-03-01T01:17:49;11.20;;;7.95;;
34876;SDS011;21086;44.780;17.194;2023-03-01T01:20:17;14.45;;;9.93;;
34876;SDS011;21086;44.780;17.194;2023-03-01T01:22:44;11.80;;;8.38;;
34876;SDS011;21086;44.780;17.194;2023-03-01T01:25:11;9.05;;;6.90;;
34876;SDS011;21086;44.780;17.194;2023-03-01T01:27:38;12.85;;;9.38;;
34876;SDS011;21086;44.780;17.194;2023-03-01T01:30:05;14.25;;;10.13;;
34876;SDS011;21086;44.780;17.194;2023-03-01T01:32:32;12.95;;;8.85;;
34876;SDS011;21086;44.780;17.194;2023-03-01T01:34:59;13.38;;;9.68;;
34876;SDS011;21086;44.780;17.194;2023-03-01T01:37:26;11.75;;;8.63;;
34876;SDS011;21086;44.780;17.194;2023-03-01T01:39:58;9.20;;;6.72;;
34876;SDS011;21086;44.780;17.194;2023-03-01T01:42:25;12.52;;;8.27;;
34876;SDS011;21086;44.780;17.194;2023-03-01T01:45:39;13.88;;;8.88;;
34876;SDS011;21086;44.780;17.194;2023-03-01T01:47:55;9.45;;;7.25;;
34876;SDS011;21086;44.780;17.194;2023-03-01T01:50:29;11.95;;;8.48;;
34876;SDS011;21086;44.780;17.194;2023-03-01T01:53:22;13.38;;;9.23;;
34876;SDS011;21086;44.780;17.194;2023-03-01T01:55:53;12.45;;;8.70;;
34876;SDS011;21086;44.780;17.194;2023-03-01T01:58:24;11.88;;;8.40;;
34876;SDS011;21086;44.780;17.194;2023-03-01T02:00:53;12.75;;;9.45;;
34876;SDS011;21086;44.780;17.194;2023-03-01T02:03:22;13.65;;;9.05;;
34876;SDS011;21086;44.780;17.194;2023-03-01T02:05:57;12.45;;;8.75;;
34876;SDS011;21086;44.780;17.194;2023-03-01T02:08:38;16.05;;;8.65;;
34876;SDS011;21086;44.780;17.194;2023-03-01T02:11:08;12.02;;;8.95;;
34876;SDS011;21086;44.780;17.194;2023-03-01T02:13:41;12.63;;;8.98;;
34876;SDS011;21086;44.780;17.194;2023-03-01T02:16:09;14.93;;;9.98;;
34876;SDS011;21086;44.780;17.194;2023-03-01T02:18:39;13.15;;;8.82;;
34876;SDS011;21086;44.780;17.194;2023-03-01T02:23:47;12.30;;;8.75;;
34876;SDS011;21086;44.780;17.194;2023-03-01T02:26:19;13.27;;;9.45;;
34876;SDS011;21086;44.780;17.194;2023-03-01T02:28:53;12.50;;;8.63;;
34876;SDS011;21086;44.780;17.194;2023-03-01T02:31:21;13.82;;;9.63;;
34876;SDS011;21086;44.780;17.194;2023-03-01T02:34:07;10.80;;;8.00;;
34876;SDS011;21086;44.780;17.194;2023-03-01T02:36:51;12.57;;;8.20;;
34876;SDS011;21086;44.780;17.194;2023-03-01T02:39:26;14.18;;;9.05;;
34876;SDS011;21086;44.780;17.194;2023-03-01T02:41:57;12.52;;;8.88;;
34876;SDS011;21086;44.780;17.194;2023-03-01T02:44:25;11.40;;;7.97;;
34876;SDS011;21086;44.780;17.194;2023-03-01T02:46:53;10.60;;;6.53;;
34876;SDS011;21086;44.780;17.194;2023-03-01T02:55:08;17.13;;;10.40;;
34876;SDS011;21086;44.780;17.194;2023-03-01T02:57:40;16.88;;;9.48;;
34876;SDS011;21086;44.780;17.194;2023-03-01T03:00:10;15.10;;;8.57;;
34876;SDS011;21086;44.780;17.194;2023-03-01T03:02:49;12.50;;;8.00;;
34876;SDS011;21086;44.780;17.194;2023-03-01T03:05:20;13.88;;;9.45;;
34876;SDS011;21086;44.780;17.194;2023-03-01T03:07:48;13.05;;;7.82;;
34876;SDS011;21086;44.780;17.194;2023-03-01T03:10:20;11.82;;;8.48;;
34876;SDS011;21086;44.780;17.194;2023-03-01T03:12:53;13.05;;;8.48;;
34876;SDS011;21086;44.780;17.194;2023-03-01T03:15:22;11.73;;;8.20;;
34876;SDS011;21086;44.780;17.194;2023-03-01T03:17:49;11.88;;;7.78;;
34876;SDS011;21086;44.780;17.194;2023-03-01T03:20:18;11.95;;;8.35;;
34876;SDS011;21086;44.780;17.194;2023-03-01T03:22:47;14.02;;;8.95;;
34876;SDS011;21086;44.780;17.194;2023-03-01T03:25:17;11.27;;;8.48;;
34876;SDS011;21086;44.780;17.194;2023-03-01T03:27:45;11.32;;;7.07;;
34876;SDS011;21086;44.780;17.194;2023-03-01T03:30:14;9.65;;;7.22;;
34876;SDS011;21086;44.780;17.194;2023-03-01T03:32:45;10.25;;;7.90;;
34876;SDS011;21086;44.780;17.194;2023-03-01T03:35:24;10.20;;;7.32;;
34876;SDS011;21086;44.780;17.194;2023-03-01T03:38:00;10.45;;;7.50;;
34876;SDS011;21086;44.780;17.194;2023-03-01T03:40:34;10.95;;;6.72;;
34876;SDS011;21086;44.780;17.194;2023-03-01T03:43:04;10.93;;;7.25;;
34876;SDS011;21086;44.780;17.194;2023-03-01T03:45:36;7.97;;;5.55;;
34876;SDS011;21086;44.780;17.194;2023-03-01T03:48:04;9.50;;;6.63;;
34876;SDS011;21086;44.780;17.194;2023-03-01T03:50:33;11.02;;;7.00;;
34876;SDS011;21086;44.780;17.194;2023-03-01T03:53:01;11.35;;;8.07;;
34876;SDS011;21086;44.780;17.194;2023-03-01T03:55:30;11.15;;;5.95;;
34876;SDS011;21086;44.780;17.194;2023-03-01T03:57:58;11.65;;;6.57;;
34876;SDS011;21086;44.780;17.194;2023-03-01T04:00:28;8.65;;;6.50;;
34876;SDS011;21086;44.780;17.194;2023-03-01T04:02:55;11.48;;;7.22;;
34876;SDS011;21086;44.780;17.194;2023-03-01T04:05:22;13.73;;;9.07;;
34876;SDS011;21086;44.780;17.194;2023-03-01T04:07:50;13.43;;;8.35;;
34876;SDS011;21086;44.780;17.194;2023-03-01T04:10:28;12.95;;;8.55;;
34876;SDS011;21086;44.780;17.194;2023-03-01T04:12:57;12.35;;;8.68;;
34876;SDS011;21086;44.780;17.194;2023-03-01T04:15:25;11.70;;;7.72;;
34876;SDS011;21086;44.780;17.194;2023-03-01T04:17:53;8.32;;;6.28;;
34876;SDS011;21086;44.780;17.194;2023-03-01T04:20:22;8.10;;;5.97;;
34876;SDS011;21086;44.780;17.194;2023-03-01T04:23:12;7.55;;;5.63;;
34876;SDS011;21086;44.780;17.194;2023-03-01T04:25:48;10.30;;;7.18;;
34876;SDS011;21086;44.780;17.194;2023-03-01T04:28:24;9.48;;;6.13;;
34876;SDS011;21086;44.780;17.194;2023-03-01T04:31:03;9.88;;;6.53;;
34876;SDS011;21086;44.780;17.194;2023-03-01T04:33:44;12.82;;;8.60;;
34876;SDS011;21086;44.780;17.194;2023-03-01T04:36:14;15.07;;;9.85;;
34876;SDS011;21086;44.780;17.194;2023-03-01T04:38:42;18.98;;;12.05;;
34876;SDS011;21086;44.780;17.194;2023-03-01T04:41:14;11.40;;;7.78;;
34876;SDS011;21086;44.780;17.194;2023-03-01T04:43:43;14.63;;;9.43;;
34876;SDS011;21086;44.780;17.194;2023-03-01T04:46:14;10.27;;;7.18;;
34876;SDS011;21086;44.780;17.194;2023-03-01T04:48:43;10.77;;;7.43;;
34876;SDS011;21086;44.780;17.194;2023-03-01T04:51:11;12.70;;;8.88;;
34876;SDS011;21086;44.780;17.194;2023-03-01T04:53:41;13.35;;;8.63;;
34876;SDS011;21086;44.780;17.194;2023-03-01T04:56:09;17.55;;;11.02;;
34876;SDS011;21086;44.780;17.194;2023-03-01T04:58:36;14.90;;;9.75;;
34876;SDS011;21086;44.780;17.194;2023-03-01T05:01:10;16.95;;;10.82;;
34876;SDS011;21086;44.780;17.194;2023-03-01T05:03:46;13.63;;;9.13;;
34876;SDS011;21086;44.780;17.194;2023-03-01T05:06:15;13.82;;;9.98;;
34876;SDS011;21086;44.780;17.194;2023-03-01T05:08:43;10.85;;;7.75;;
34876;SDS011;21086;44.780;17.194;2023-03-01T05:11:10;10.88;;;8.05;;
34876;SDS011;21086;44.780;17.194;2023-03-01T05:13:38;12.30;;;8.98;;
34876;SDS011;21086;44.780;17.194;2023-03-01T05:16:05;14.43;;;10.02;;
34876;SDS011;21086;44.780;17.194;2023-03-01T05:18:38;12.70;;;7.07;;
34876;SDS011;21086;44.780;17.194;2023-03-01T05:21:10;11.98;;;8.05;;
34876;SDS011;21086;44.780;17.194;2023-03-01T05:23:38;11.15;;;8.50;;
34876;SDS011;21086;44.780;17.194;2023-03-01T05:26:06;10.63;;;8.30;;
34876;SDS011;21086;44.780;17.194;2023-03-01T05:28:51;9.10;;;7.45;;
34876;SDS011;21086;44.780;17.194;2023-03-01T05:31:18;12.15;;;9.18;;
34876;SDS011;21086;44.780;17.194;2023-03-01T05:33:44;10.95;;;8.27;;
34876;SDS011;21086;44.780;17.194;2023-03-01T05:36:12;10.90;;;8.30;;
34876;SDS011;21086;44.780;17.194;2023-03-01T05:38:39;13.23;;;9.30;;
34876;SDS011;21086;44.780;17.194;2023-03-01T05:41:12;13.27;;;8.52;;
34876;SDS011;21086;44.780;17.194;2023-03-01T05:43:41;11.60;;;8.35;;
34876;SDS011;21086;44.780;17.194;2023-03-01T05:46:09;12.30;;;8.27;;
34876;SDS011;21086;44.780;17.194;2023-03-01T05:48:38;11.25;;;7.25;;
34876;SDS011;21086;44.780;17.194;2023-03-01T05:51:05;15.13;;;10.50;;
34876;SDS011;21086;44.780;17.194;2023-03-01T05:53:32;18.80;;;12.93;;
34876;SDS011;21086;44.780;17.194;2023-03-01T05:55:59;15.45;;;11.70;;
34876;SDS011;21086;44.780;17.194;2023-03-01T05:58:28;13.40;;;10.07;;
34876;SDS011;21086;44.780;17.194;2023-03-01T06:00:55;11.73;;;7.68;;
34876;SDS011;21086;44.780;17.194;2023-03-01T06:03:22;11.23;;;7.63;;
34876;SDS011;21086;44.780;17.194;2023-03-01T06:05:49;9.88;;;8.32;;
34876;SDS011;21086;44.780;17.194;2023-03-01T06:08:21;12.23;;;9.43;;
34876;SDS011;21086;44.780;17.194;2023-03-01T06:10:48;12.00;;;8.88;;
34876;SDS011;21086;44.780;17.194;2023-03-01T06:13:15;11.43;;;7.90;;
34876;SDS011;21086;44.780;17.194;2023-03-01T06:15:43;12.13;;;8.80;;
34876;SDS011;21086;44.780;17.194;2023-03-01T06:18:09;13.10;;;9.77;;
34876;SDS011;21086;44.780;17.194;2023-03-01T06:20:36;10.60;;;7.85;;
34876;SDS011;21086;44.780;17.194;2023-03-01T06:23:03;13.48;;;9.93;;
34876;SDS011;21086;44.780;17.194;2023-03-01T06:25:31;11.50;;;9.00;;
34876;SDS011;21086;44.780;17.194;2023-03-01T06:27:58;11.45;;;8.32;;
34876;SDS011;21086;44.780;17.194;2023-03-01T06:30:25;14.68;;;11.27;;
34876;SDS011;21086;44.780;17.194;2023-03-01T06:32:52;15.55;;;11.95;;
34876;SDS011;21086;44.780;17.194;2023-03-01T06:35:27;15.35;;;10.85;;
34876;SDS011;21086;44.780;17.194;2023-03-01T06:37:57;13.23;;;9.35;;
34876;SDS011;21086;44.780;17.194;2023-03-01T06:40:27;12.73;;;8.85;;
34876;SDS011;21086;44.780;17.194;2023-03-01T06:42:54;10.50;;;7.32;;
34876;SDS011;21086;44.780;17.194;2023-03-01T06:45:22;10.38;;;7.72;;
34876;SDS011;21086;44.780;17.194;2023-03-01T06:47:49;11.73;;;8.63;;
34876;SDS011;21086;44.780;17.194;2023-03-01T06:50:16;10.68;;;7.90;;
34876;SDS011;21086;44.780;17.194;2023-03-01T06:52:44;10.07;;;8.07;;
34876;SDS011;21086;44.780;17.194;2023-03-01T06:55:11;8.73;;;6.60;;
34876;SDS011;21086;44.780;17.194;2023-03-01T06:57:39;12.32;;;8.57;;
34876;SDS011;21086;44.780;17.194;2023-03-01T07:00:07;12.05;;;8.93;;
34876;SDS011;21086;44.780;17.194;2023-03-01T07:02:35;11.80;;;8.70;;
34876;SDS011;21086;44.780;17.194;2023-03-01T07:05:02;11.88;;;9.30;;
34876;SDS011;21086;44.780;17.194;2023-03-01T07:07:29;12.07;;;9.43;;
34876;SDS011;21086;44.780;17.194;2023-03-01T07:09:56;13.38;;;10.43;;
34876;SDS011;21086;44.780;17.194;2023-03-01T07:12:23;15.65;;;12.18;;
34876;SDS011;21086;44.780;17.194;2023-03-01T07:14:50;16.38;;;11.23;;
34876;SDS011;21086;44.780;17.194;2023-03-01T07:17:17;16.55;;;12.40;;
34876;SDS011;21086;44.780;17.194;2023-03-01T07:19:45;14.93;;;11.30;;
34876;SDS011;21086;44.780;17.194;2023-03-01T07:22:12;17.45;;;13.77;;
34876;SDS011;21086;44.780;17.194;2023-03-01T07:24:40;14.40;;;10.50;;
34876;SDS011;21086;44.780;17.194;2023-03-01T07:27:08;14.10;;;11.15;;
34876;SDS011;21086;44.780;17.194;2023-03-01T07:29:35;14.55;;;11.57;;
34876;SDS011;21086;44.780;17.194;2023-03-01T07:32:05;12.23;;;10.07;;
34876;SDS011;21086;44.780;17.194;2023-03-01T07:34:33;12.23;;;10.27;;
34876;SDS011;21086;44.780;17.194;2023-03-01T07:37:00;14.63;;;11.82;;
34876;SDS011;21086;44.780;17.194;2023-03-01T07:39:27;14.07;;;12.65;;
34876;SDS011;21086;44.780;17.194;2023-03-01T07:41:54;10.70;;;9.57;;
34876;SDS011;21086;44.780;17.194;2023-03-01T07:44:21;11.75;;;9.88;;
34876;SDS011;21086;44.780;17.194;2023-03-01T07:46:48;14.63;;;12.05;;
34876;SDS011;21086;44.780;17.194;2023-03-01T07:49:15;12.77;;;11.10;;
34876;SDS011;21086;44.780;17.194;2023-03-01T07:51:42;10.98;;;9.75;;
34876;SDS011;21086;44.780;17.194;2023-03-01T07:54:10;12.70;;;10.65;;
34876;SDS011;21086;44.780;17.194;2023-03-01T07:56:37;13.50;;;11.02;;
34876;SDS011;21086;44.780;17.194;2023-03-01T07:59:04;12.98;;;10.38;;
34876;SDS011;21086;44.780;17.194;2023-03-01T08:01:31;13.65;;;11.23;;
34876;SDS011;21086;44.780;17.194;2023-03-01T08:03:58;11.65;;;9.48;;
34876;SDS011;21086;44.780;17.194;2023-03-01T08:06:25;14.85;;;12.48;;
34876;SDS011;21086;44.780;17.194;2023-03-01T08:08:52;16.08;;;12.13;;
34876;SDS011;21086;44.780;17.194;2023-03-01T08:11:21;12.80;;;10.30;;
34876;SDS011;21086;44.780;17.194;2023-03-01T08:13:49;13.15;;;10.27;;
34876;SDS011;21086;44.780;17.194;2023-03-01T08:16:18;12.25;;;9.65;;
34876;SDS011;21086;44.780;17.194;2023-03-01T08:18:46;11.10;;;9.23;;
34876;SDS011;21086;44.780;17.194;2023-03-01T08:21:16;10.32;;;8.55;;
34876;SDS011;21086;44.780;17.194;2023-03-01T08:23:44;9.27;;;7.22;;
34876;SDS011;21086;44.780;17.194;2023-03-01T08:26:13;9.45;;;7.72;;
34876;SDS011;21086;44.780;17.194;2023-03-01T08:28:42;10.70;;;9.13;;
34876;SDS011;21086;44.780;17.194;2023-03-01T08:31:16;16.10;;;13.60;;
34876;SDS011;21086;44.780;17.194;2023-03-01T08:33:48;12.35;;;10.48;;
34876;SDS011;21086;44.780;17.194;2023-03-01T08:36:25;11.90;;;8.45;;
34876;SDS011;21086;44.780;17.194;2023-03-01T08:38:55;21.77;;;17.23;;
34876;SDS011;21086;44.780;17.194;2023-03-01T08:41:23;9.55;;;8.55;;
34876;SDS011;21086;44.780;17.194;2023-03-01T08:43:51;10.15;;;8.15;;
34876;SDS011;21086;44.780;17.194;2023-03-01T08:46:19;10.32;;;8.00;;
34876;SDS011;21086;44.780;17.194;2023-03-01T08:48:46;10.35;;;8.32;;
34876;SDS011;21086;44.780;17.194;2023-03-01T08:51:14;7.78;;;6.60;;
34876;SDS011;21086;44.780;17.194;2023-03-01T08:53:45;9.82;;;7.93;;
34876;SDS011;21086;44.780;17.194;2023-03-01T08:56:13;9.55;;;7.32;;
34876;SDS011;21086;44.780;17.194;2023-03-01T08:58:43;8.63;;;7.32;;
34876;SDS011;21086;44.780;17.194;2023-03-01T09:01:12;7.72;;;6.45;;
34876;SDS011;21086;44.780;17.194;2023-03-01T09:03:43;11.93;;;9.65;;
34876;SDS011;21086;44.780;17.194;2023-03-01T09:06:11;10.43;;;7.90;;
34876;SDS011;21086;44.780;17.194;2023-03-01T09:08:39;12.80;;;10.00;;
34876;SDS011;21086;44.780;17.194;2023-03-01T09:11:12;12.75;;;9.68;;
34876;SDS011;21086;44.780;17.194;2023-03-01T09:13:46;10.27;;;8.13;;
34876;SDS011;21086;44.780;17.194;2023-03-01T09:16:14;13.35;;;10.00;;
34876;SDS011;21086;44.780;17.194;2023-03-01T09:18:44;13.35;;;10.48;;
34876;SDS011;21086;44.780;17.194;2023-03-01T09:21:12;12.98;;;10.63;;
34876;SDS011;21086;44.780;17.194;2023-03-01T09:23:41;13.48;;;10.27;;
34876;SDS011;21086;44.780;17.194;2023-03-01T09:26:17;14.27;;;11.57;;
34876;SDS011;21086;44.780;17.194;2023-03-01T09:28:46;14.57;;;12.15;;
34876;SDS011;21086;44.780;17.194;2023-03-01T09:31:15;13.48;;;10.90;;
34876;SDS011;21086;44.780;17.194;2023-03-01T09:33:45;11.35;;;9.63;;
34876;SDS011;21086;44.780;17.194;2023-03-01T09:36:18;11.93;;;9.38;;
34876;SDS011;21086;44.780;17.194;2023-03-01T09:38:47;17.88;;;13.55;;
34876;SDS011;21086;44.780;17.194;2023-03-01T09:43:48;12.77;;;11.10;;
34876;SDS011;21086;44.780;17.194;2023-03-01T09:46:22;10.05;;;8.07;;
34876;SDS011;21086;44.780;17.194;2023-03-01T09:48:52;11.38;;;8.43;;
34876;SDS011;21086;44.780;17.194;2023-03-01T09:51:34;13.88;;;11.52;;
34876;SDS011;21086;44.780;17.194;2023-03-01T09:54:03;15.32;;;11.32;;
34876;SDS011;21086;44.780;17.194;2023-03-01T09:56:39;16.85;;;13.23;;
34876;SDS011;21086;44.780;17.194;2023-03-01T10:01:43;14.30;;;11.25;;
34876;SDS011;21086;44.780;17.194;2023-03-01T10:07:10;18.33;;;14.50;;
34876;SDS011;21086;44.780;17.194;2023-03-01T10:09:46;17.10;;;12.85;;
34876;SDS011;21086;44.780;17.194;2023-03-01T10:12:16;18.40;;;14.00;;
34876;SDS011;21086;44.780;17.194;2023-03-01T10:17:20;17.50;;;13.18;;
34876;SDS011;21086;44.780;17.194;2023-03-01T10:20:10;13.07;;;9.55;;
34876;SDS011;21086;44.780;17.194;2023-03-01T10:22:41;13.65;;;10.82;;
34876;SDS011;21086;44.780;17.194;2023-03-01T10:25:08;11.85;;;9.25;;
34876;SDS011;21086;44.780;17.194;2023-03-01T10:27:53;12.10;;;9.77;;
34876;SDS011;21086;44.780;17.194;2023-03-01T10:30:30;11.63;;;9.43;;
34876;SDS011;21086;44.780;17.194;2023-03-01T10:33:01;15.40;;;10.73;;
34876;SDS011;21086;44.780;17.194;2023-03-01T10:35:31;13.65;;;10.60;;
34876;SDS011;21086;44.780;17.194;2023-03-01T10:38:04;12.15;;;9.68;;
34876;SDS011;21086;44.780;17.194;2023-03-01T10:40:33;11.25;;;9.18;;
34876;SDS011;21086;44.780;17.194;2023-03-01T10:43:02;11.98;;;9.55;;
34876;SDS011;21086;44.780;17.194;2023-03-01T10:45:33;21.02;;;14.75;;
34876;SDS011;21086;44.780;17.194;2023-03-01T10:48:05;11.63;;;8.93;;
34876;SDS011;21086;44.780;17.194;2023-03-01T10:50:33;12.10;;;8.93;;
34876;SDS011;21086;44.780;17.194;2023-03-01T10:53:01;11.95;;;9.70;;
34876;SDS011;21086;44.780;17.194;2023-03-01T10:55:39;10.25;;;8.10;;
34876;SDS011;21086;44.780;17.194;2023-03-01T10:58:28;9.73;;;7.70;;
34876;SDS011;21086;44.780;17.194;2023-03-01T11:00:55;13.60;;;10.35;;
34876;SDS011;21086;44.780;17.194;2023-03-01T11:03:30;16.63;;;12.63;;
34876;SDS011;21086;44.780;17.194;2023-03-01T11:08:48;11.15;;;9.30;;
34876;SDS011;21086;44.780;17.194;2023-03-01T11:11:20;14.30;;;12.15;;
34876;SDS011;21086;44.780;17.194;2023-03-01T11:13:51;11.18;;;9.38;;
34876;SDS011;21086;44.780;17.194;2023-03-01T11:18:57;6.65;;;5.85;;
34876;SDS011;21086;44.780;17.194;2023-03-01T11:21:37;10.55;;;8.02;;
34876;SDS011;21086;44.780;17.194;2023-03-01T11:24:14;12.20;;;9.32;;
34876;SDS011;21086;44.780;17.194;2023-03-01T11:26:45;10.50;;;9.20;;
34876;SDS011;21086;44.780;17.194;2023-03-01T11:29:25;14.20;;;11.18;;
34876;SDS011;21086;44.780;17.194;2023-03-01T11:32:06;13.65;;;11.07;;
34876;SDS011;21086;44.780;17.194;2023-03-01T11:34:38;12.57;;;10.30;;
34876;SDS011;21086;44.780;17.194;2023-03-01T11:37:16;11.93;;;10.60;;
34876;SDS011;21086;44.780;17.194;2023-03-01T11:40:02;11.63;;;9.00;;
34876;SDS011;21086;44.780;17.194;2023-03-01T11:42:37;12.13;;;10.80;;
34876;SDS011;21086;44.780;17.194;2023-03-01T11:45:10;12.50;;;10.60;;
34876;SDS011;21086;44.780;17.194;2023-03-01T11:50:32;18.23;;;14.18;;
34876;SDS011;21086;44.780;17.194;2023-03-01T11:55:57;13.23;;;10.60;;
34876;SDS011;21086;44.780;17.194;2023-03-01T12:04:18;14.60;;;12.32;;
34876;SDS011;21086;44.780;17.194;2023-03-01T12:06:52;11.50;;;10.02;;
34876;SDS011;21086;44.780;17.194;2023-03-01T12:09:49;13.20;;;10.27;;
34876;SDS011;21086;44.780;17.194;2023-03-01T12:15:20;11.73;;;10.35;;
34876;SDS011;21086;44.780;17.194;2023-03-01T12:21:17;20.90;;;13.38;;
34876;SDS011;21086;44.780;17.194;2023-03-01T12:24:21;16.88;;;12.15;;
34876;SDS011;21086;44.780;17.194;2023-03-01T12:29:34;13.98;;;12.07;;
34876;SDS011;21086;44.780;17.194;2023-03-01T12:37:35;12.73;;;10.93;;
34876;SDS011;21086;44.780;17.194;2023-03-01T12:45:46;12.43;;;9.98;;
34876;SDS011;21086;44.780;17.194;2023-03-01T12:51:01;9.50;;;7.53;;
34876;SDS011;21086;44.780;17.194;2023-03-01T12:53:34;8.98;;;7.13;;
34876;SDS011;21086;44.780;17.194;2023-03-01T12:56:11;8.30;;;5.68;;
34876;SDS011;21086;44.780;17.194;2023-03-01T13:02:13;10.52;;;8.40;;
34876;SDS011;21086;44.780;17.194;2023-03-01T13:05:18;9.27;;;7.63;;
34876;SDS011;21086;44.780;17.194;2023-03-01T13:08:16;12.68;;;8.93;;
34876;SDS011;21086;44.780;17.194;2023-03-01T13:10:50;11.15;;;7.75;;
34876;SDS011;21086;44.780;17.194;2023-03-01T13:13:21;16.20;;;10.88;;
34876;SDS011;21086;44.780;17.194;2023-03-01T13:15:50;11.77;;;8.77;;
34876;SDS011;21086;44.780;17.194;2023-03-01T13:20:58;24.27;;;19.35;;
34876;SDS011;21086;44.780;17.194;2023-03-01T13:23:31;25.25;;;21.98;;
34876;SDS011;21086;44.780;17.194;2023-03-01T13:26:02;7.60;;;5.45;;
34876;SDS011;21086;44.780;17.194;2023-03-01T13:33:43;13.15;;;9.90;;
34876;SDS011;21086;44.780;17.194;2023-03-01T13:44:50;19.52;;;15.35;;
34876;SDS011;21086;44.780;17.194;2023-03-01T13:49:40;22.58;;;17.90;;
34876;SDS011;21086;44.780;17.194;2023-03-01T13:52:46;15.40;;;11.75;;
34876;SDS011;21086;44.780;17.194;2023-03-01T13:57:41;14.85;;;10.98;;
34876;SDS011;21086;44.780;17.194;2023-03-01T14:03:18;16.02;;;12.45;;
34876;SDS011;21086;44.780;17.194;2023-03-01T14:08:42;13.15;;;9.68;;
34876;SDS011;21086;44.780;17.194;2023-03-01T14:16:45;11.70;;;8.93;;
34876;SDS011;21086;44.780;17.194;2023-03-01T14:19:18;10.23;;;8.98;;
34876;SDS011;21086;44.780;17.194;2023-03-01T14:25:05;13.95;;;10.35;;
34876;SDS011;21086;44.780;17.194;2023-03-01T14:27:43;9.63;;;8.43;;
34876;SDS011;21086;44.780;17.194;2023-03-01T14:30:12;9.32;;;7.85;;
34876;SDS011;21086;44.780;17.194;2023-03-01T14:32:52;7.38;;;6.22;;
34876;SDS011;21086;44.780;17.194;2023-03-01T14:35:22;8.55;;;6.80;;
34876;SDS011;21086;44.780;17.194;2023-03-01T14:37:54;8.43;;;6.53;;
34876;SDS011;21086;44.780;17.194;2023-03-01T14:40:22;9.68;;;7.20;;
34876;SDS011;21086;44.780;17.194;2023-03-01T14:42:53;11.95;;;9.70;;
34876;SDS011;21086;44.780;17.194;2023-03-01T14:45:23;9.95;;;7.82;;
34876;SDS011;21086;44.780;17.194;2023-03-01T14:47:53;13.07;;;10.30;;
34876;SDS011;21086;44.780;17.194;2023-03-01T14:52:55;14.90;;;12.90;;
34876;SDS011;21086;44.780;17.194;2023-03-01T14:55:32;12.02;;;8.80;;
34876;SDS011;21086;44.780;17.194;2023-03-01T14:58:03;11.98;;;7.40;;
34876;SDS011;21086;44.780;17.194;2023-03-01T15:00:31;12.35;;;9.57;;
34876;SDS011;21086;44.780;17.194;2023-03-01T15:03:00;15.10;;;12.25;;
34876;SDS011;21086;44.780;17.194;2023-03-01T15:05:40;12.23;;;9.98;;
34876;SDS011;21086;44.780;17.194;2023-03-01T15:08:15;8.55;;;6.28;;
34876;SDS011;21086;44.780;17.194;2023-03-01T15:10:55;8.05;;;6.18;;
34876;SDS011;21086;44.780;17.194;2023-03-01T15:13:25;13.95;;;7.25;;
34876;SDS011;21086;44.780;17.194;2023-03-01T15:16:15;11.70;;;9.57;;
34876;SDS011;21086;44.780;17.194;2023-03-01T15:18:46;15.52;;;11.15;;
34876;SDS011;21086;44.780;17.194;2023-03-01T15:21:23;12.13;;;8.88;;
34876;SDS011;21086;44.780;17.194;2023-03-01T15:24:04;17.17;;;14.13;;
34876;SDS011;21086;44.780;17.194;2023-03-01T15:27:12;14.07;;;11.18;;
34876;SDS011;21086;44.780;17.194;2023-03-01T15:29:41;12.23;;;10.32;;
34876;SDS011;21086;44.780;17.194;2023-03-01T15:32:24;12.93;;;10.25;;
34876;SDS011;21086;44.780;17.194;2023-03-01T15:34:57;14.77;;;11.68;;
34876;SDS011;21086;44.780;17.194;2023-03-01T15:48:49;13.43;;;10.35;;
34876;SDS011;21086;44.780;17.194;2023-03-01T15:51:20;23.55;;;16.35;;
34876;SDS011;21086;44.780;17.194;2023-03-01T15:53:54;31.05;;;20.80;;
34876;SDS011;21086;44.780;17.194;2023-03-01T15:56:22;36.08;;;25.05;;
34876;SDS011;21086;44.780;17.194;2023-03-01T15:58:48;62.47;;;41.60;;
34876;SDS011;21086;44.780;17.194;2023-03-01T16:01:16;48.15;;;34.83;;
34876;SDS011;21086;44.780;17.194;2023-03-01T16:03:44;40.30;;;29.85;;
34876;SDS011;21086;44.780;17.194;2023-03-01T16:06:11;51.70;;;37.13;;
34876;SDS011;21086;44.780;17.194;2023-03-01T16:08:39;40.63;;;31.25;;
34876;SDS011;21086;44.780;17.194;2023-03-01T16:11:24;37.22;;;28.58;;
34876;SDS011;21086;44.780;17.194;2023-03-01T16:13:54;46.80;;;32.15;;
34876;SDS011;21086;44.780;17.194;2023-03-01T16:16:21;50.50;;;35.45;;
34876;SDS011;21086;44.780;17.194;2023-03-01T16:18:48;48.13;;;36.03;;
34876;SDS011;21086;44.780;17.194;2023-03-01T16:21:22;35.35;;;26.85;;
34876;SDS011;21086;44.780;17.194;2023-03-01T16:23:51;43.45;;;32.20;;
34876;SDS011;21086;44.780;17.194;2023-03-01T16:26:19;51.00;;;36.40;;
34876;SDS011;21086;44.780;17.194;2023-03-01T16:28:46;67.90;;;49.30;;
34876;SDS011;21086;44.780;17.194;2023-03-01T16:31:16;61.75;;;44.88;;
34876;SDS011;21086;44.780;17.194;2023-03-01T16:33:45;55.70;;;40.67;;